Marina, CA (93933)

8:08 AM PST on December 09, 2016 (GMT -0800)
Marina, CA | | Change Station

Elev 103 ft 36.68 °N, 121.79 °W | Updated 8 seconds ago

Overcast
Overcast
56.2 °F
Feels Like 56.2 °F
N
1.1
Wind Variable Wind from South
Gusts 1.1 mph

Today
High -- | Low -- °F
--% Chance of Precip.
Yesterday
High -- | Low -- °F
Precip. -- in
Pressure 30.29 in
Visibility 10.0 miles
Clouds Scattered Clouds 2900 ft
Dew Point 53 °F
Humidity 89%
Rainfall 0.00 in
Snow Depth Not available.
7:08 AM 4:51 PM
Waxing Gibbous, 75% visible
METAR KMRY 091554Z 08003KT 10SM SCT029 13/12 A3025 RMK AO2 SLP255 T01280122
Pressure 30.29 in
Visibility 10.0 miles
Clouds Scattered Clouds 2900 ft
Dew Point 53 °F
Humidity 89%
Rainfall 0.00 in
Snow Depth Not available.
7:08 AM 4:51 PM
Waxing Gibbous, 75% visible
METAR KMRY 091554Z 08003KT 10SM SCT029 13/12 A3025 RMK AO2 SLP255 T01280122

10-Day Weather Forecast

Almanac

Astronomy

Dec. 09, 2016 Rise Set
Actual Time
Civil Twilight
Nautical Twilight
Astronomical Twilight
Moon
Length of Visible Light
Length of Day
Tomorrow will be .
, % of the Moon is Illuminated

Today's Extremes

State Highs State Lows

Community

WunderPhotos

Upload Photos

1,956,462 photos uploaded!

WunderBlog® & News

Nearby

Air Quality

  Air Quality AQ Index Pollutant
Not available.

Snow Depth

Station Depth Elevation

Earthquake Activity

City Distance Mag. Time & Date
Minimum magnitude displayed is 2.5.

Coastal Water Temperatures

Place Temperature

Stations

Nearby Weather Stations

Station Location Temp. Windchill Dew Point Humidity Wind Precip. Elev Updated Type
                   

Watches & Warnings

There are currently no watches in effect.